createdAt,value
2023-03-11T00:04:08.778Z,97509.88
2023-03-11T00:09:10.293Z,97518.41
2023-03-11T00:14:11.690Z,97512.72
2023-03-11T00:19:13.183Z,97518.09
2023-03-11T00:24:15.018Z,97521.31
2023-03-11T00:29:16.396Z,97542.06
2023-03-11T00:34:17.792Z,97551.47
2023-03-11T00:39:19.203Z,97553.19
2023-03-11T00:44:20.573Z,97580.78
2023-03-11T00:49:21.985Z,97563.63
2023-03-11T00:54:23.352Z,97598.09
2023-03-11T00:59:24.733Z,97601.22
2023-03-11T01:04:26.240Z,97620.06
2023-03-11T01:09:27.646Z,97636.84
2023-03-11T01:14:29.042Z,97657.09
2023-03-11T01:19:30.444Z,97649.19
2023-03-11T01:24:31.809Z,97678.00
2023-03-11T01:29:33.191Z,97678.72
2023-03-11T01:34:36.005Z,97681.06
2023-03-11T01:39:37.406Z,97679.22
2023-03-11T01:44:38.780Z,97700.69
2023-03-11T01:49:41.954Z,97702.50
2023-03-11T01:54:43.349Z,97720.19
2023-03-11T01:59:50.355Z,97741.44
2023-03-11T02:04:51.899Z,97736.97
2023-03-11T02:09:53.277Z,97746.78
2023-03-11T02:14:54.737Z,97757.03
2023-03-11T02:20:02.016Z,97775.28
2023-03-11T02:25:23.161Z,97791.13
2023-03-11T02:30:24.586Z,97785.03
2023-03-11T02:35:26.026Z,97824.81
2023-03-11T02:40:29.758Z,97804.00
2023-03-11T02:45:31.379Z,97844.97
2023-03-11T02:50:34.427Z,97851.63
2023-03-11T02:55:36.075Z,97874.88
2023-03-11T03:00:38.251Z,97880.47
2023-03-11T03:05:39.723Z,97899.03
2023-03-11T03:10:41.115Z,97896.34
2023-03-11T03:15:42.526Z,97930.00
2023-03-11T03:20:43.939Z,97944.69
2023-03-11T03:25:45.386Z,97960.50
2023-03-11T03:30:46.788Z,97975.50
2023-03-11T03:35:48.234Z,97998.31
2023-03-11T03:40:49.889Z,97995.25
2023-03-11T03:45:58.283Z,98011.88
2023-03-11T03:51:07.703Z,98027.41
2023-03-11T03:56:13.978Z,98063.50
2023-03-11T04:01:15.376Z,98099.66
2023-03-11T04:06:24.600Z,98102.63
2023-03-11T04:11:25.979Z,98141.63
2023-03-11T04:16:27.417Z,98125.78
2023-03-11T04:21:28.816Z,98137.88
2023-03-11T04:26:30.179Z,98157.75
2023-03-11T04:31:31.563Z,98162.66
2023-03-11T04:36:32.947Z,98189.41
2023-03-11T04:41:34.337Z,98190.28
2023-03-11T04:46:35.750Z,98223.13
2023-03-11T04:51:37.208Z,98207.53
2023-03-11T04:56:38.619Z,98230.69
2023-03-11T05:01:40.162Z,98237.78
2023-03-11T05:06:41.555Z,98253.69
2023-03-11T05:11:42.948Z,98260.22
2023-03-11T05:16:44.350Z,98294.59
2023-03-11T05:21:45.744Z,98307.94
2023-03-11T05:26:48.589Z,98325.78
2023-03-11T05:31:50.112Z,98335.94
2023-03-11T05:36:51.479Z,98342.75
2023-03-11T05:41:52.950Z,98351.16
2023-03-11T05:46:54.382Z,98357.44
2023-03-11T05:51:58.521Z,98401.72
2023-03-11T05:57:00.170Z,98402.34
2023-03-11T06:02:01.844Z,98412.38
2023-03-11T06:07:03.696Z,98415.59
2023-03-11T06:12:05.337Z,98432.34
2023-03-11T06:17:06.738Z,98442.72
2023-03-11T06:22:08.123Z,98458.84
2023-03-11T06:27:11.090Z,98468.91
2023-03-11T06:32:12.555Z,98496.50
2023-03-11T06:37:14.790Z,98498.25
2023-03-11T06:42:16.174Z,98508.06
2023-03-11T06:47:17.576Z,98521.94
2023-03-11T06:52:19.120Z,98542.94
2023-03-11T06:57:21.498Z,98553.34
2023-03-11T07:02:22.896Z,98571.16
2023-03-11T07:07:24.277Z,98575.50
2023-03-11T07:12:25.688Z,98589.13
2023-03-11T07:17:27.235Z,98604.44
2023-03-11T07:22:29.849Z,98623.84
2023-03-11T07:27:31.215Z,98650.38
2023-03-11T07:32:32.671Z,98657.47
2023-03-11T07:37:34.079Z,98668.38
2023-03-11T07:42:35.602Z,98685.88
2023-03-11T07:47:36.981Z,98694.06
2023-03-11T07:52:38.501Z,98703.38
2023-03-11T07:57:39.968Z,98705.53
2023-03-11T08:02:41.399Z,98718.09
2023-03-11T08:07:42.806Z,98734.22
2023-03-11T08:12:44.467Z,98750.91
2023-03-11T08:17:46.068Z,98747.09
2023-03-11T08:22:57.577Z,98766.47
2023-03-11T08:27:59.265Z,98773.31
2023-03-11T08:33:00.771Z,98790.53
2023-03-11T08:38:02.139Z,98805.84
2023-03-11T08:43:03.606Z,98812.66
2023-03-11T08:48:05.086Z,98809.38
2023-03-11T08:53:06.456Z,98820.31
2023-03-11T08:58:07.826Z,98858.59
2023-03-11T09:03:09.931Z,98838.91
2023-03-11T09:08:11.327Z,98865.69
2023-03-11T09:13:12.703Z,98863.78
2023-03-11T09:18:14.211Z,98873.59
2023-03-11T09:23:16.516Z,98895.19
2023-03-11T09:28:17.892Z,98894.38
2023-03-11T09:33:19.295Z,98897.41
2023-03-11T09:38:20.669Z,98915.13
2023-03-11T09:43:35.776Z,98924.69
2023-03-11T09:48:42.197Z,98930.16
2023-03-11T09:53:47.134Z,98936.75
2023-03-11T09:58:53.597Z,98964.63
2023-03-11T10:03:56.589Z,98951.22
2023-03-11T10:09:04.756Z,98943.84
2023-03-11T10:14:30.525Z,98956.41
2023-03-11T10:20:04.840Z,98982.38
2023-03-11T10:25:16.974Z,98969.50
2023-03-11T10:30:51.236Z,98976.91
2023-03-11T10:35:58.386Z,98984.56
2023-03-11T10:41:04.958Z,99001.22
2023-03-11T10:46:10.442Z,98999.56
2023-03-11T10:51:22.752Z,99022.78
2023-03-11T10:56:37.037Z,99019.28
2023-03-11T11:01:38.520Z,99024.75
2023-03-11T11:06:39.915Z,99038.69
2023-03-11T11:11:41.330Z,99046.03
2023-03-11T11:16:42.775Z,99047.16
2023-03-11T11:21:52.081Z,99044.69
2023-03-11T11:27:22.947Z,99051.00
2023-03-11T11:32:25.548Z,99055.06
2023-03-11T11:37:31.698Z,99042.75
2023-03-11T11:42:33.071Z,99050.44
2023-03-11T11:47:34.972Z,99060.81
2023-03-11T11:52:37.687Z,99060.50
2023-03-11T11:57:39.062Z,99068.47
2023-03-11T12:02:52.583Z,99062.47
2023-03-11T12:08:06.540Z,99072.91
2023-03-11T12:13:29.720Z,99069.00
2023-03-11T12:18:45.181Z,99073.34
2023-03-11T12:23:57.743Z,99053.97
2023-03-11T12:29:00.724Z,99061.66
2023-03-11T12:34:03.085Z,99083.50
2023-03-11T12:39:06.257Z,99077.44
2023-03-11T12:44:26.243Z,99075.56
2023-03-11T12:49:30.492Z,99073.94
2023-03-11T12:54:36.278Z,99095.81
2023-03-11T12:59:47.773Z,99094.69
2023-03-11T13:05:07.527Z,99098.75
2023-03-11T13:10:16.005Z,99104.53
2023-03-11T13:15:20.026Z,99121.78
2023-03-11T13:20:41.307Z,99121.22
2023-03-11T13:25:49.699Z,99132.94
2023-03-11T13:31:17.409Z,99144.72
2023-03-11T13:36:51.511Z,99142.56
2023-03-11T13:41:52.938Z,99145.81
2023-03-11T13:47:09.752Z,99145.50
2023-03-11T13:52:24.370Z,99157.00
2023-03-11T13:57:28.679Z,99154.88
2023-03-11T14:02:30.163Z,99167.41
2023-03-11T14:07:34.300Z,99175.56
2023-03-11T14:12:35.796Z,99180.44
2023-03-11T14:17:37.235Z,99192.84
2023-03-11T14:22:38.623Z,99195.03
2023-03-11T14:27:40.041Z,99204.56
2023-03-11T14:32:42.529Z,99194.41
2023-03-11T14:37:43.900Z,99198.31
2023-03-11T14:42:46.816Z,99205.94
2023-03-11T14:47:49.967Z,99208.94
2023-03-11T14:52:52.926Z,99229.13
2023-03-11T14:57:56.079Z,99231.66
2023-03-11T15:03:12.483Z,99241.22
2023-03-11T15:08:17.023Z,99240.91
2023-03-11T15:13:18.401Z,99252.63
2023-03-11T15:18:22.710Z,99258.13
2023-03-11T15:23:24.174Z,99259.81
2023-03-11T15:28:28.901Z,99270.50
2023-03-11T15:33:32.611Z,99266.84
2023-03-11T15:38:33.986Z,99279.41
2023-03-11T15:43:46.610Z,99286.56
2023-03-11T15:48:47.984Z,99294.78
2023-03-11T15:53:49.410Z,99295.84
2023-03-11T15:58:50.771Z,99308.06
2023-03-11T16:03:52.247Z,99314.16
2023-03-11T16:08:54.048Z,99313.94
2023-03-11T16:13:55.420Z,99320.75
2023-03-11T16:18:56.791Z,99330.75
2023-03-11T16:23:58.158Z,99336.00
2023-03-11T16:29:09.117Z,99346.19
2023-03-11T16:34:19.549Z,99346.72
2023-03-11T16:39:20.919Z,99348.84
2023-03-11T16:44:22.299Z,99360.06
2023-03-11T16:49:23.678Z,99372.97
2023-03-11T16:54:25.044Z,99369.47
2023-03-11T16:59:26.421Z,99381.13
2023-03-11T17:04:27.787Z,99396.94
2023-03-11T17:09:29.156Z,99393.38
2023-03-11T17:14:32.021Z,99407.09
2023-03-11T17:19:33.716Z,99409.59
2023-03-11T17:24:35.261Z,99422.63
2023-03-11T17:29:36.650Z,99430.84
2023-03-11T17:34:38.032Z,99442.41
2023-03-11T17:39:39.446Z,99447.34
2023-03-11T17:44:50.955Z,99455.44
2023-03-11T17:49:53.014Z,99447.75
2023-03-11T17:54:56.369Z,99460.69
2023-03-11T18:00:03.936Z,99457.44
2023-03-11T18:05:05.727Z,99458.44
2023-03-11T18:10:07.535Z,99466.53
2023-03-11T18:15:14.220Z,99476.75
2023-03-11T18:20:16.098Z,99471.06
2023-03-11T18:25:17.574Z,99468.34
2023-03-11T18:30:18.988Z,99475.34
2023-03-11T18:35:20.940Z,99478.09
2023-03-11T18:40:23.137Z,99489.63
2023-03-11T18:45:24.510Z,99483.63
2023-03-11T18:50:25.888Z,99487.91
2023-03-11T18:55:27.255Z,99495.56
2023-03-11T19:00:28.631Z,99494.28
2023-03-11T19:05:29.996Z,99500.03
2023-03-11T19:10:31.363Z,99497.22
2023-03-11T19:15:32.788Z,99507.31
2023-03-11T19:20:34.584Z,99514.50
2023-03-11T19:25:35.984Z,99515.88
2023-03-11T19:30:37.437Z,99519.41
2023-03-11T19:35:38.846Z,99521.22
2023-03-11T19:40:40.242Z,99528.09
2023-03-11T19:45:41.632Z,99530.63
2023-03-11T19:50:43.290Z,99527.28
2023-03-11T19:55:45.509Z,99535.72
2023-03-11T20:00:46.906Z,99531.41
2023-03-11T20:05:49.023Z,99532.56
2023-03-11T20:10:51.223Z,99531.41
2023-03-11T20:15:52.913Z,99518.19
2023-03-11T20:20:54.325Z,99532.44
2023-03-11T20:25:55.714Z,99535.00
2023-03-11T20:30:57.190Z,99531.13
2023-03-11T20:36:06.183Z,99532.44
2023-03-11T20:41:09.423Z,99533.25
2023-03-11T20:46:11.187Z,99536.34
2023-03-11T20:51:14.067Z,99540.47
2023-03-11T20:56:19.995Z,99537.38
2023-03-11T21:01:30.958Z,99537.88
2023-03-11T21:06:34.492Z,99536.00
2023-03-11T21:11:35.972Z,99539.34
2023-03-11T21:16:38.608Z,99539.84
2023-03-11T21:21:40.377Z,99536.22
2023-03-11T21:26:41.949Z,99540.66
2023-03-11T21:31:43.534Z,99536.34
2023-03-11T21:36:45.105Z,99536.34
2023-03-11T21:41:46.857Z,99530.75
2023-03-11T21:46:48.425Z,99534.97
2023-03-11T21:51:49.832Z,99542.44
2023-03-11T21:56:51.404Z,99531.72
2023-03-11T22:01:52.947Z,99532.16
2023-03-11T22:06:56.940Z,99533.50
2023-03-11T22:11:58.677Z,99542.91
2023-03-11T22:17:00.359Z,99543.78
2023-03-11T22:22:01.885Z,99541.50
2023-03-11T22:27:03.433Z,99540.31
2023-03-11T22:32:05.220Z,99540.63
2023-03-11T22:37:06.691Z,99544.00
2023-03-11T22:42:08.087Z,99546.41
2023-03-11T22:47:09.463Z,99553.97
2023-03-11T22:52:10.891Z,99562.50
2023-03-11T22:57:12.263Z,99565.53
2023-03-11T23:02:13.644Z,99570.50
2023-03-11T23:07:15.023Z,99570.81
2023-03-11T23:12:16.632Z,99558.91
2023-03-11T23:17:18.000Z,99559.56
2023-03-11T23:22:19.368Z,99562.81
2023-03-11T23:27:20.859Z,99564.06
2023-03-11T23:32:22.282Z,99559.25
2023-03-11T23:37:23.808Z,99561.78
2023-03-11T23:42:26.417Z,99563.13
2023-03-11T23:47:28.251Z,99582.63
2023-03-11T23:52:29.650Z,99582.63
2023-03-11T23:57:31.181Z,99576.47
